sensor_id;sensor_type;location;lat;lon;timestamp;P1;durP1;ratioP1;P2;durP2;ratioP2
74180;SDS011;62544;50.826;14.354;2023-03-18T00:01:53;11.32;;;5.12;;
74180;SDS011;62544;50.826;14.354;2023-03-18T00:06:18;11.32;;;5.12;;
74180;SDS011;62544;50.826;14.354;2023-03-18T00:10:41;9.75;;;5.22;;
74180;SDS011;62544;50.826;14.354;2023-03-18T00:15:06;9.75;;;5.22;;
74180;SDS011;62544;50.826;14.354;2023-03-18T00:19:29;9.75;;;5.22;;
74180;SDS011;62544;50.826;14.354;2023-03-18T00:23:53;10.62;;;5.11;;
74180;SDS011;62544;50.826;14.354;2023-03-18T00:28:17;10.62;;;5.11;;
74180;SDS011;62544;50.826;14.354;2023-03-18T00:32:41;10.38;;;5.49;;
74180;SDS011;62544;50.826;14.354;2023-03-18T00:37:05;10.38;;;5.49;;
74180;SDS011;62544;50.826;14.354;2023-03-18T00:41:29;10.58;;;4.99;;
74180;SDS011;62544;50.826;14.354;2023-03-18T00:45:53;10.58;;;4.99;;
74180;SDS011;62544;50.826;14.354;2023-03-18T00:50:17;10.58;;;4.99;;
74180;SDS011;62544;50.826;14.354;2023-03-18T00:54:41;13.18;;;5.27;;
74180;SDS011;62544;50.826;14.354;2023-03-18T00:59:05;13.18;;;5.27;;
74180;SDS011;62544;50.826;14.354;2023-03-18T01:03:29;10.65;;;4.88;;
74180;SDS011;62544;50.826;14.354;2023-03-18T01:07:53;10.65;;;4.88;;
74180;SDS011;62544;50.826;14.354;2023-03-18T01:12:17;11.03;;;4.69;;
74180;SDS011;62544;50.826;14.354;2023-03-18T01:16:41;11.03;;;4.69;;
74180;SDS011;62544;50.826;14.354;2023-03-18T01:21:05;9.59;;;4.70;;
74180;SDS011;62544;50.826;14.354;2023-03-18T01:25:29;9.59;;;4.70;;
74180;SDS011;62544;50.826;14.354;2023-03-18T01:29:53;9.59;;;4.70;;
74180;SDS011;62544;50.826;14.354;2023-03-18T01:34:17;8.91;;;4.50;;
74180;SDS011;62544;50.826;14.354;2023-03-18T01:38:41;8.91;;;4.50;;
74180;SDS011;62544;50.826;14.354;2023-03-18T01:47:29;11.11;;;4.97;;
74180;SDS011;62544;50.826;14.354;2023-03-18T01:51:54;8.96;;;4.28;;
74180;SDS011;62544;50.826;14.354;2023-03-18T01:56:17;8.96;;;4.28;;
74180;SDS011;62544;50.826;14.354;2023-03-18T02:00:42;8.38;;;4.19;;
74180;SDS011;62544;50.826;14.354;2023-03-18T02:05:05;8.38;;;4.19;;
74180;SDS011;62544;50.826;14.354;2023-03-18T02:09:29;8.38;;;4.19;;
74180;SDS011;62544;50.826;14.354;2023-03-18T02:13:53;8.67;;;4.48;;
74180;SDS011;62544;50.826;14.354;2023-03-18T02:18:19;8.67;;;4.48;;
74180;SDS011;62544;50.826;14.354;2023-03-18T02:22:45;12.97;;;4.87;;
74180;SDS011;62544;50.826;14.354;2023-03-18T02:31:29;9.73;;;4.48;;
74180;SDS011;62544;50.826;14.354;2023-03-18T02:35:54;9.73;;;4.48;;
74180;SDS011;62544;50.826;14.354;2023-03-18T02:40:23;9.73;;;4.48;;
74180;SDS011;62544;50.826;14.354;2023-03-18T02:44:42;11.66;;;4.57;;
74180;SDS011;62544;50.826;14.354;2023-03-18T02:49:05;11.66;;;4.57;;
74180;SDS011;62544;50.826;14.354;2023-03-18T02:53:29;9.40;;;4.36;;
74180;SDS011;62544;50.826;14.354;2023-03-18T02:57:53;9.40;;;4.36;;
74180;SDS011;62544;50.826;14.354;2023-03-18T03:02:17;9.11;;;4.26;;
74180;SDS011;62544;50.826;14.354;2023-03-18T03:06:41;9.11;;;4.26;;
74180;SDS011;62544;50.826;14.354;2023-03-18T03:11:05;7.75;;;4.36;;
74180;SDS011;62544;50.826;14.354;2023-03-18T03:15:29;7.75;;;4.36;;
74180;SDS011;62544;50.826;14.354;2023-03-18T03:19:53;7.75;;;4.36;;
74180;SDS011;62544;50.826;14.354;2023-03-18T03:24:17;7.46;;;4.17;;
74180;SDS011;62544;50.826;14.354;2023-03-18T03:28:41;7.46;;;4.17;;
74180;SDS011;62544;50.826;14.354;2023-03-18T03:33:05;9.21;;;4.26;;
74180;SDS011;62544;50.826;14.354;2023-03-18T03:37:29;9.21;;;4.26;;
74180;SDS011;62544;50.826;14.354;2023-03-18T03:41:53;10.64;;;4.74;;
74180;SDS011;62544;50.826;14.354;2023-03-18T03:46:17;10.64;;;4.74;;
74180;SDS011;62544;50.826;14.354;2023-03-18T03:50:41;6.87;;;3.48;;
74180;SDS011;62544;50.826;14.354;2023-03-18T03:55:05;6.87;;;3.48;;
74180;SDS011;62544;50.826;14.354;2023-03-18T03:59:28;6.87;;;3.48;;
74180;SDS011;62544;50.826;14.354;2023-03-18T04:03:52;10.15;;;4.16;;
74180;SDS011;62544;50.826;14.354;2023-03-18T04:08:16;10.15;;;4.16;;
74180;SDS011;62544;50.826;14.354;2023-03-18T04:12:41;10.52;;;4.34;;
74180;SDS011;62544;50.826;14.354;2023-03-18T04:17:05;10.52;;;4.34;;
74180;SDS011;62544;50.826;14.354;2023-03-18T04:21:29;7.53;;;3.96;;
74180;SDS011;62544;50.826;14.354;2023-03-18T04:25:53;7.53;;;3.96;;
74180;SDS011;62544;50.826;14.354;2023-03-18T04:30:17;7.53;;;3.96;;
74180;SDS011;62544;50.826;14.354;2023-03-18T04:34:41;8.27;;;4.23;;
74180;SDS011;62544;50.826;14.354;2023-03-18T04:39:05;8.27;;;4.23;;
74180;SDS011;62544;50.826;14.354;2023-03-18T04:43:28;9.76;;;4.25;;
74180;SDS011;62544;50.826;14.354;2023-03-18T04:47:52;9.76;;;4.25;;
74180;SDS011;62544;50.826;14.354;2023-03-18T04:52:16;10.48;;;4.52;;
74180;SDS011;62544;50.826;14.354;2023-03-18T04:56:40;10.48;;;4.52;;
74180;SDS011;62544;50.826;14.354;2023-03-18T05:01:04;7.71;;;4.53;;
74180;SDS011;62544;50.826;14.354;2023-03-18T05:05:28;7.71;;;4.53;;
74180;SDS011;62544;50.826;14.354;2023-03-18T05:09:52;7.71;;;4.53;;
74180;SDS011;62544;50.826;14.354;2023-03-18T05:14:16;8.38;;;4.43;;
74180;SDS011;62544;50.826;14.354;2023-03-18T05:18:41;8.38;;;4.43;;
74180;SDS011;62544;50.826;14.354;2023-03-18T05:23:04;12.57;;;4.61;;
74180;SDS011;62544;50.826;14.354;2023-03-18T05:27:28;12.57;;;4.61;;
74180;SDS011;62544;50.826;14.354;2023-03-18T05:31:56;11.62;;;4.61;;
74180;SDS011;62544;50.826;14.354;2023-03-18T05:36:17;11.62;;;4.61;;
74180;SDS011;62544;50.826;14.354;2023-03-18T05:40:41;12.73;;;4.82;;
74180;SDS011;62544;50.826;14.354;2023-03-18T05:45:05;12.73;;;4.82;;
74180;SDS011;62544;50.826;14.354;2023-03-18T05:49:29;12.73;;;4.82;;
74180;SDS011;62544;50.826;14.354;2023-03-18T05:53:52;9.35;;;4.72;;
74180;SDS011;62544;50.826;14.354;2023-03-18T05:58:17;9.35;;;4.72;;
74180;SDS011;62544;50.826;14.354;2023-03-18T06:02:41;9.47;;;4.25;;
74180;SDS011;62544;50.826;14.354;2023-03-18T06:07:05;9.47;;;4.25;;
74180;SDS011;62544;50.826;14.354;2023-03-18T06:11:29;9.48;;;4.45;;
74180;SDS011;62544;50.826;14.354;2023-03-18T06:15:56;9.48;;;4.45;;
74180;SDS011;62544;50.826;14.354;2023-03-18T06:20:17;9.48;;;4.45;;
74180;SDS011;62544;50.826;14.354;2023-03-18T06:24:41;8.17;;;4.48;;
74180;SDS011;62544;50.826;14.354;2023-03-18T06:29:05;8.17;;;4.48;;
74180;SDS011;62544;50.826;14.354;2023-03-18T06:33:28;8.84;;;4.37;;
74180;SDS011;62544;50.826;14.354;2023-03-18T06:37:53;8.84;;;4.37;;
74180;SDS011;62544;50.826;14.354;2023-03-18T06:42:17;8.56;;;5.25;;
74180;SDS011;62544;50.826;14.354;2023-03-18T06:46:41;8.56;;;5.25;;
74180;SDS011;62544;50.826;14.354;2023-03-18T06:51:05;9.62;;;4.27;;
74180;SDS011;62544;50.826;14.354;2023-03-18T06:55:29;9.62;;;4.27;;
74180;SDS011;62544;50.826;14.354;2023-03-18T06:59:53;9.62;;;4.27;;
74180;SDS011;62544;50.826;14.354;2023-03-18T07:04:16;10.53;;;4.68;;
74180;SDS011;62544;50.826;14.354;2023-03-18T07:08:40;10.53;;;4.68;;
74180;SDS011;62544;50.826;14.354;2023-03-18T07:13:04;10.66;;;4.79;;
74180;SDS011;62544;50.826;14.354;2023-03-18T07:17:29;10.66;;;4.79;;
74180;SDS011;62544;50.826;14.354;2023-03-18T07:21:52;17.80;;;9.10;;
74180;SDS011;62544;50.826;14.354;2023-03-18T07:26:17;17.80;;;9.10;;
74180;SDS011;62544;50.826;14.354;2023-03-18T07:30:40;10.58;;;5.49;;
74180;SDS011;62544;50.826;14.354;2023-03-18T07:35:05;10.58;;;5.49;;
74180;SDS011;62544;50.826;14.354;2023-03-18T07:39:28;10.58;;;5.49;;
74180;SDS011;62544;50.826;14.354;2023-03-18T07:43:52;9.63;;;4.72;;
74180;SDS011;62544;50.826;14.354;2023-03-18T07:48:16;9.63;;;4.72;;
74180;SDS011;62544;50.826;14.354;2023-03-18T07:52:40;10.04;;;4.53;;
74180;SDS011;62544;50.826;14.354;2023-03-18T07:57:04;10.04;;;4.53;;
74180;SDS011;62544;50.826;14.354;2023-03-18T08:01:28;8.26;;;4.43;;
74180;SDS011;62544;50.826;14.354;2023-03-18T08:05:53;8.26;;;4.43;;
74180;SDS011;62544;50.826;14.354;2023-03-18T08:10:16;8.26;;;4.43;;
74180;SDS011;62544;50.826;14.354;2023-03-18T08:14:41;11.23;;;4.83;;
74180;SDS011;62544;50.826;14.354;2023-03-18T08:19:04;11.23;;;4.83;;
74180;SDS011;62544;50.826;14.354;2023-03-18T08:23:28;26.51;;;14.88;;
74180;SDS011;62544;50.826;14.354;2023-03-18T08:27:52;26.51;;;14.88;;
74180;SDS011;62544;50.826;14.354;2023-03-18T08:32:16;13.65;;;6.53;;
74180;SDS011;62544;50.826;14.354;2023-03-18T08:36:40;13.65;;;6.53;;
74180;SDS011;62544;50.826;14.354;2023-03-18T08:41:04;11.51;;;5.66;;
74180;SDS011;62544;50.826;14.354;2023-03-18T08:45:28;11.51;;;5.66;;
74180;SDS011;62544;50.826;14.354;2023-03-18T08:49:52;11.51;;;5.66;;
74180;SDS011;62544;50.826;14.354;2023-03-18T08:54:16;9.22;;;5.36;;
74180;SDS011;62544;50.826;14.354;2023-03-18T08:58:40;9.22;;;5.36;;
74180;SDS011;62544;50.826;14.354;2023-03-18T09:03:04;10.33;;;5.07;;
74180;SDS011;62544;50.826;14.354;2023-03-18T09:07:28;10.33;;;5.07;;
74180;SDS011;62544;50.826;14.354;2023-03-18T09:11:52;11.41;;;5.16;;
74180;SDS011;62544;50.826;14.354;2023-03-18T09:16:17;11.41;;;5.16;;
74180;SDS011;62544;50.826;14.354;2023-03-18T09:20:40;13.71;;;5.27;;
74180;SDS011;62544;50.826;14.354;2023-03-18T09:25:05;13.71;;;5.27;;
74180;SDS011;62544;50.826;14.354;2023-03-18T09:29:28;13.71;;;5.27;;
74180;SDS011;62544;50.826;14.354;2023-03-18T09:33:52;9.35;;;5.97;;
74180;SDS011;62544;50.826;14.354;2023-03-18T09:38:17;9.35;;;5.97;;
74180;SDS011;62544;50.826;14.354;2023-03-18T09:47:28;11.34;;;5.67;;
74180;SDS011;62544;50.826;14.354;2023-03-18T09:55:53;11.64;;;6.27;;
74180;SDS011;62544;50.826;14.354;2023-03-18T10:00:21;11.64;;;6.27;;
74180;SDS011;62544;50.826;14.354;2023-03-18T10:04:44;9.64;;;5.37;;
74180;SDS011;62544;50.826;14.354;2023-03-18T10:09:15;9.64;;;5.37;;
74180;SDS011;62544;50.826;14.354;2023-03-18T10:13:30;10.06;;;5.58;;
74180;SDS011;62544;50.826;14.354;2023-03-18T10:18:03;10.06;;;5.58;;
74180;SDS011;62544;50.826;14.354;2023-03-18T10:22:28;9.85;;;5.97;;
74180;SDS011;62544;50.826;14.354;2023-03-18T10:26:42;9.85;;;5.97;;
74180;SDS011;62544;50.826;14.354;2023-03-18T10:31:09;8.06;;;5.37;;
74180;SDS011;62544;50.826;14.354;2023-03-18T10:35:33;8.06;;;5.37;;
74180;SDS011;62544;50.826;14.354;2023-03-18T10:39:52;8.06;;;5.37;;
74180;SDS011;62544;50.826;14.354;2023-03-18T10:44:26;11.44;;;5.37;;
74180;SDS011;62544;50.826;14.354;2023-03-18T10:48:47;11.44;;;5.37;;
74180;SDS011;62544;50.826;14.354;2023-03-18T10:53:15;11.35;;;5.57;;
74180;SDS011;62544;50.826;14.354;2023-03-18T10:57:28;11.35;;;5.57;;
74180;SDS011;62544;50.826;14.354;2023-03-18T11:02:02;11.97;;;5.09;;
74180;SDS011;62544;50.826;14.354;2023-03-18T11:06:23;11.97;;;5.09;;
74180;SDS011;62544;50.826;14.354;2023-03-18T11:10:44;18.93;;;9.27;;
74180;SDS011;62544;50.826;14.354;2023-03-18T11:15:10;18.93;;;9.27;;
74180;SDS011;62544;50.826;14.354;2023-03-18T11:19:29;18.93;;;9.27;;
74180;SDS011;62544;50.826;14.354;2023-03-18T11:23:56;12.76;;;6.28;;
74180;SDS011;62544;50.826;14.354;2023-03-18T11:28:20;12.76;;;6.28;;
74180;SDS011;62544;50.826;14.354;2023-03-18T11:32:50;9.96;;;5.58;;
74180;SDS011;62544;50.826;14.354;2023-03-18T11:37:05;9.96;;;5.58;;
74180;SDS011;62544;50.826;14.354;2023-03-18T11:41:28;19.53;;;10.36;;
74180;SDS011;62544;50.826;14.354;2023-03-18T11:45:56;19.53;;;10.36;;
74180;SDS011;62544;50.826;14.354;2023-03-18T11:50:20;19.53;;;10.36;;
74180;SDS011;62544;50.826;14.354;2023-03-18T12:03:32;11.57;;;6.28;;
74180;SDS011;62544;50.826;14.354;2023-03-18T12:21:16;14.26;;;7.68;;
74180;SDS011;62544;50.826;14.354;2023-03-18T12:25:38;14.26;;;7.68;;
74180;SDS011;62544;50.826;14.354;2023-03-18T12:34:23;12.65;;;6.68;;
74180;SDS011;62544;50.826;14.354;2023-03-18T12:47:33;14.66;;;6.88;;
74180;SDS011;62544;50.826;14.354;2023-03-18T12:51:59;12.76;;;6.98;;
74180;SDS011;62544;50.826;14.354;2023-03-18T12:56:22;12.76;;;6.98;;
74180;SDS011;62544;50.826;14.354;2023-03-18T13:00:48;16.66;;;7.88;;
74180;SDS011;62544;50.826;14.354;2023-03-18T13:05:05;16.66;;;7.88;;
74180;SDS011;62544;50.826;14.354;2023-03-18T13:09:39;16.66;;;7.88;;
74180;SDS011;62544;50.826;14.354;2023-03-18T13:13:53;33.34;;;16.37;;
74180;SDS011;62544;50.826;14.354;2023-03-18T13:22:51;10.78;;;6.89;;
74180;SDS011;62544;50.826;14.354;2023-03-18T13:35:59;13.06;;;7.48;;
74180;SDS011;62544;50.826;14.354;2023-03-18T13:40:31;13.06;;;7.48;;
74180;SDS011;62544;50.826;14.354;2023-03-18T13:44:42;15.46;;;8.68;;
74180;SDS011;62544;50.826;14.354;2023-03-18T13:49:11;15.46;;;8.68;;
74180;SDS011;62544;50.826;14.354;2023-03-18T13:53:37;17.65;;;10.27;;
74180;SDS011;62544;50.826;14.354;2023-03-18T14:02:31;13.17;;;7.58;;
74180;SDS011;62544;50.826;14.354;2023-03-18T14:06:50;13.17;;;7.58;;
74180;SDS011;62544;50.826;14.354;2023-03-18T14:15:35;13.16;;;7.68;;
74180;SDS011;62544;50.826;14.354;2023-03-18T14:19:53;13.16;;;7.68;;
74180;SDS011;62544;50.826;14.354;2023-03-18T14:28:42;15.17;;;8.48;;
74180;SDS011;62544;50.826;14.354;2023-03-18T14:33:14;17.47;;;10.98;;
74180;SDS011;62544;50.826;14.354;2023-03-18T14:37:29;17.47;;;10.98;;
74180;SDS011;62544;50.826;14.354;2023-03-18T14:41:53;14.78;;;9.59;;
74180;SDS011;62544;50.826;14.354;2023-03-18T14:46:16;14.78;;;9.59;;
74180;SDS011;62544;50.826;14.354;2023-03-18T14:50:40;12.69;;;8.30;;
74180;SDS011;62544;50.826;14.354;2023-03-18T14:55:12;12.69;;;8.30;;
74180;SDS011;62544;50.826;14.354;2023-03-18T14:59:28;12.69;;;8.30;;
74180;SDS011;62544;50.826;14.354;2023-03-18T15:03:52;13.40;;;9.00;;
74180;SDS011;62544;50.826;14.354;2023-03-18T15:08:20;13.40;;;9.00;;
74180;SDS011;62544;50.826;14.354;2023-03-18T15:12:40;16.39;;;9.09;;
74180;SDS011;62544;50.826;14.354;2023-03-18T15:17:09;16.39;;;9.09;;
74180;SDS011;62544;50.826;14.354;2023-03-18T15:21:28;13.79;;;8.69;;
74180;SDS011;62544;50.826;14.354;2023-03-18T15:25:53;13.79;;;8.69;;
74180;SDS011;62544;50.826;14.354;2023-03-18T15:30:26;13.79;;;8.69;;
74180;SDS011;62544;50.826;14.354;2023-03-18T15:34:40;14.98;;;9.39;;
74180;SDS011;62544;50.826;14.354;2023-03-18T15:39:14;14.98;;;9.39;;
74180;SDS011;62544;50.826;14.354;2023-03-18T15:43:29;14.88;;;10.39;;
74180;SDS011;62544;50.826;14.354;2023-03-18T15:47:52;14.88;;;10.39;;
74180;SDS011;62544;50.826;14.354;2023-03-18T15:52:16;17.97;;;11.48;;
74180;SDS011;62544;50.826;14.354;2023-03-18T15:56:46;17.97;;;11.48;;
74180;SDS011;62544;50.826;14.354;2023-03-18T16:01:04;18.44;;;10.67;;
74180;SDS011;62544;50.826;14.354;2023-03-18T16:05:28;18.44;;;10.67;;
74180;SDS011;62544;50.826;14.354;2023-03-18T16:09:52;18.44;;;10.67;;
74180;SDS011;62544;50.826;14.354;2023-03-18T16:14:16;39.12;;;18.02;;
74180;SDS011;62544;50.826;14.354;2023-03-18T16:18:40;39.12;;;18.02;;
74180;SDS011;62544;50.826;14.354;2023-03-18T16:23:04;18.17;;;11.12;;
74180;SDS011;62544;50.826;14.354;2023-03-18T16:27:32;18.17;;;11.12;;
74180;SDS011;62544;50.826;14.354;2023-03-18T16:31:52;19.19;;;11.08;;
74180;SDS011;62544;50.826;14.354;2023-03-18T16:36:19;19.19;;;11.08;;
74180;SDS011;62544;50.826;14.354;2023-03-18T16:40:40;19.15;;;10.37;;
74180;SDS011;62544;50.826;14.354;2023-03-18T16:45:04;19.15;;;10.37;;
74180;SDS011;62544;50.826;14.354;2023-03-18T16:49:29;19.15;;;10.37;;
74180;SDS011;62544;50.826;14.354;2023-03-18T16:53:52;15.10;;;10.10;;
74180;SDS011;62544;50.826;14.354;2023-03-18T16:58:17;15.10;;;10.10;;
74180;SDS011;62544;50.826;14.354;2023-03-18T17:02:40;24.42;;;13.13;;
74180;SDS011;62544;50.826;14.354;2023-03-18T17:07:04;24.42;;;13.13;;
74180;SDS011;62544;50.826;14.354;2023-03-18T17:11:28;29.74;;;13.96;;
74180;SDS011;62544;50.826;14.354;2023-03-18T17:15:52;29.74;;;13.96;;
74180;SDS011;62544;50.826;14.354;2023-03-18T17:20:17;29.74;;;13.96;;
74180;SDS011;62544;50.826;14.354;2023-03-18T17:24:40;20.72;;;11.55;;
74180;SDS011;62544;50.826;14.354;2023-03-18T17:29:04;20.72;;;11.55;;
74180;SDS011;62544;50.826;14.354;2023-03-18T17:33:29;25.43;;;14.73;;
74180;SDS011;62544;50.826;14.354;2023-03-18T17:37:52;25.43;;;14.73;;
74180;SDS011;62544;50.826;14.354;2023-03-18T17:42:24;22.25;;;12.09;;
74180;SDS011;62544;50.826;14.354;2023-03-18T17:46:40;22.25;;;12.09;;
74180;SDS011;62544;50.826;14.354;2023-03-18T17:51:10;55.90;;;31.28;;
74180;SDS011;62544;50.826;14.354;2023-03-18T17:55:28;55.90;;;31.28;;
74180;SDS011;62544;50.826;14.354;2023-03-18T17:59:52;55.90;;;31.28;;
74180;SDS011;62544;50.826;14.354;2023-03-18T18:04:17;31.15;;;15.93;;
74180;SDS011;62544;50.826;14.354;2023-03-18T18:08:40;31.15;;;15.93;;
74180;SDS011;62544;50.826;14.354;2023-03-18T18:13:05;40.19;;;21.32;;
74180;SDS011;62544;50.826;14.354;2023-03-18T18:17:28;40.19;;;21.32;;
74180;SDS011;62544;50.826;14.354;2023-03-18T18:21:52;36.82;;;17.28;;
74180;SDS011;62544;50.826;14.354;2023-03-18T18:26:17;36.82;;;17.28;;
74180;SDS011;62544;50.826;14.354;2023-03-18T18:30:40;53.20;;;23.43;;
74180;SDS011;62544;50.826;14.354;2023-03-18T18:35:04;53.20;;;23.43;;
74180;SDS011;62544;50.826;14.354;2023-03-18T18:39:28;53.20;;;23.43;;
74180;SDS011;62544;50.826;14.354;2023-03-18T18:43:52;36.21;;;18.74;;
74180;SDS011;62544;50.826;14.354;2023-03-18T18:48:16;36.21;;;18.74;;
74180;SDS011;62544;50.826;14.354;2023-03-18T18:52:40;37.92;;;20.60;;
74180;SDS011;62544;50.826;14.354;2023-03-18T18:57:04;37.92;;;20.60;;
74180;SDS011;62544;50.826;14.354;2023-03-18T19:01:28;42.51;;;21.26;;
74180;SDS011;62544;50.826;14.354;2023-03-18T19:05:52;42.51;;;21.26;;
74180;SDS011;62544;50.826;14.354;2023-03-18T19:10:16;42.51;;;21.26;;
74180;SDS011;62544;50.826;14.354;2023-03-18T19:14:40;43.17;;;23.06;;
74180;SDS011;62544;50.826;14.354;2023-03-18T19:19:04;43.17;;;23.06;;
74180;SDS011;62544;50.826;14.354;2023-03-18T19:23:29;86.48;;;44.49;;
74180;SDS011;62544;50.826;14.354;2023-03-18T19:27:52;86.48;;;44.49;;
74180;SDS011;62544;50.826;14.354;2023-03-18T19:32:17;37.64;;;19.52;;
74180;SDS011;62544;50.826;14.354;2023-03-18T19:36:40;37.64;;;19.52;;
74180;SDS011;62544;50.826;14.354;2023-03-18T19:41:04;33.26;;;18.66;;
74180;SDS011;62544;50.826;14.354;2023-03-18T19:45:28;33.26;;;18.66;;
74180;SDS011;62544;50.826;14.354;2023-03-18T19:49:52;33.26;;;18.66;;
74180;SDS011;62544;50.826;14.354;2023-03-18T19:54:26;46.60;;;23.37;;
74180;SDS011;62544;50.826;14.354;2023-03-18T19:58:40;46.60;;;23.37;;
74180;SDS011;62544;50.826;14.354;2023-03-18T20:03:08;30.44;;;16.21;;
74180;SDS011;62544;50.826;14.354;2023-03-18T20:07:29;30.44;;;16.21;;
74180;SDS011;62544;50.826;14.354;2023-03-18T20:11:52;39.18;;;20.28;;
74180;SDS011;62544;50.826;14.354;2023-03-18T20:16:16;39.18;;;20.28;;
74180;SDS011;62544;50.826;14.354;2023-03-18T20:20:40;31.06;;;15.98;;
74180;SDS011;62544;50.826;14.354;2023-03-18T20:25:05;31.06;;;15.98;;
74180;SDS011;62544;50.826;14.354;2023-03-18T20:29:29;31.06;;;15.98;;
74180;SDS011;62544;50.826;14.354;2023-03-18T20:33:52;29.94;;;15.70;;
74180;SDS011;62544;50.826;14.354;2023-03-18T20:38:34;29.94;;;15.70;;
74180;SDS011;62544;50.826;14.354;2023-03-18T20:42:40;28.43;;;14.95;;
74180;SDS011;62544;50.826;14.354;2023-03-18T20:47:04;28.43;;;14.95;;
74180;SDS011;62544;50.826;14.354;2023-03-18T20:51:29;37.63;;;22.09;;
74180;SDS011;62544;50.826;14.354;2023-03-18T20:55:52;37.63;;;22.09;;
74180;SDS011;62544;50.826;14.354;2023-03-18T21:00:18;37.63;;;22.09;;
74180;SDS011;62544;50.826;14.354;2023-03-18T21:04:40;24.96;;;13.99;;
74180;SDS011;62544;50.826;14.354;2023-03-18T21:09:04;24.96;;;13.99;;
74180;SDS011;62544;50.826;14.354;2023-03-18T21:13:32;24.84;;;13.88;;
74180;SDS011;62544;50.826;14.354;2023-03-18T21:17:52;24.84;;;13.88;;
74180;SDS011;62544;50.826;14.354;2023-03-18T21:22:20;24.84;;;13.88;;
74180;SDS011;62544;50.826;14.354;2023-03-18T21:26:42;24.84;;;13.88;;
74180;SDS011;62544;50.826;14.354;2023-03-18T21:31:05;24.84;;;13.88;;
74180;SDS011;62544;50.826;14.354;2023-03-18T21:35:28;24.84;;;13.88;;
74180;SDS011;62544;50.826;14.354;2023-03-18T21:39:52;24.84;;;13.88;;
74180;SDS011;62544;50.826;14.354;2023-03-18T21:44:16;24.84;;;13.88;;
74180;SDS011;62544;50.826;14.354;2023-03-18T21:48:40;24.84;;;13.88;;
74180;SDS011;62544;50.826;14.354;2023-03-18T21:53:04;24.84;;;13.88;;
74180;SDS011;62544;50.826;14.354;2023-03-18T21:57:28;24.84;;;13.88;;
74180;SDS011;62544;50.826;14.354;2023-03-18T22:01:52;24.84;;;13.88;;
74180;SDS011;62544;50.826;14.354;2023-03-18T22:06:16;24.84;;;13.88;;
74180;SDS011;62544;50.826;14.354;2023-03-18T22:10:40;24.84;;;13.88;;
74180;SDS011;62544;50.826;14.354;2023-03-18T22:15:05;24.84;;;13.88;;
74180;SDS011;62544;50.826;14.354;2023-03-18T22:19:28;24.84;;;13.88;;
74180;SDS011;62544;50.826;14.354;2023-03-18T22:23:52;24.84;;;13.88;;
74180;SDS011;62544;50.826;14.354;2023-03-18T22:28:16;24.84;;;13.88;;
74180;SDS011;62544;50.826;14.354;2023-03-18T22:32:44;24.84;;;13.88;;
74180;SDS011;62544;50.826;14.354;2023-03-18T22:37:04;24.84;;;13.88;;
74180;SDS011;62544;50.826;14.354;2023-03-18T22:41:28;24.84;;;13.88;;
74180;SDS011;62544;50.826;14.354;2023-03-18T22:45:52;24.84;;;13.88;;
74180;SDS011;62544;50.826;14.354;2023-03-18T22:50:16;24.84;;;13.88;;
74180;SDS011;62544;50.826;14.354;2023-03-18T22:54:40;24.84;;;13.88;;
74180;SDS011;62544;50.826;14.354;2023-03-18T22:59:04;24.84;;;13.88;;
74180;SDS011;62544;50.826;14.354;2023-03-18T23:03:29;24.84;;;13.88;;
74180;SDS011;62544;50.826;14.354;2023-03-18T23:07:52;24.84;;;13.88;;
74180;SDS011;62544;50.826;14.354;2023-03-18T23:12:16;31.58;;;16.52;;
74180;SDS011;62544;50.826;14.354;2023-03-18T23:16:40;31.58;;;16.52;;
74180;SDS011;62544;50.826;14.354;2023-03-18T23:21:04;31.58;;;16.52;;
74180;SDS011;62544;50.826;14.354;2023-03-18T23:25:28;31.58;;;16.52;;
74180;SDS011;62544;50.826;14.354;2023-03-18T23:29:53;31.58;;;16.52;;
74180;SDS011;62544;50.826;14.354;2023-03-18T23:34:16;31.58;;;16.52;;
74180;SDS011;62544;50.826;14.354;2023-03-18T23:38:40;31.58;;;16.52;;
74180;SDS011;62544;50.826;14.354;2023-03-18T23:43:04;31.58;;;16.52;;
74180;SDS011;62544;50.826;14.354;2023-03-18T23:47:28;31.58;;;16.52;;
74180;SDS011;62544;50.826;14.354;2023-03-18T23:51:52;31.58;;;16.52;;
74180;SDS011;62544;50.826;14.354;2023-03-18T23:56:16;31.58;;;16.52;;
